Startpagina
METAR-TAF:

METAR-TAF

Vliegvelden :

Vliegbasis Deelen

Arnhem, Nederland

breedte: 52-04N, lengte: 005-53E, hoogte: 48 m

Actueel weer

Dit bericht is 54 minuten geleden gemaakt, om 23:25 UTC
Weinig wind
Temperatuur 18°C
Vochtigheid 100%
Druk 1015 hPa
Zicht: 8000 m
Gebroken wolken op 5400 ft
Gebroken wolken op 6000 ft
Gebroken wolken op 6600 ft
nevel

METAR: EHDL 192325Z AUTO 00000KT 8000 BR BKN054 BKN060 BKN066 18/18 Q1015 BLU

Tijdstip: 02:19 (00:19 UTC)


TAF: ontbreekt

Waarnemingen en weersverwachtingen van meer dan 4000 vliegvelden (METAR en TAF).

De beschikbare stations zijn de gele en rode punten op de kaart.

Ga met uw muis naar het station om de naam te zien.

Klik dan om waarnemingen en weersverwachtingen te zien.

kaart wijzigen: klik op de groene knoppen met een zwart kruis om in te zoomen, op de groene knop met een streepje om uit te zoomen of op de groene pijlen voor aangrenzende kaarten.


METAR-TAF: